createdAt,value
2018-12-09T00:00:14.079Z,82.80
2018-12-09T00:02:50.506Z,83.51
2018-12-09T00:05:26.837Z,82.57
2018-12-09T00:08:03.049Z,82.47
2018-12-09T00:10:39.539Z,82.78
2018-12-09T00:13:15.751Z,81.93
2018-12-09T00:15:52.028Z,81.32
2018-12-09T00:18:28.237Z,83.79
2018-12-09T00:21:04.711Z,85.56
2018-12-09T00:23:41.027Z,86.56
2018-12-09T00:26:17.375Z,84.74
2018-12-09T00:28:53.699Z,85.07
2018-12-09T00:31:30.623Z,85.12
2018-12-09T00:34:06.827Z,83.51
2018-12-09T00:36:43.355Z,82.49
2018-12-09T00:39:19.631Z,82.84
2018-12-09T00:41:55.920Z,82.92
2018-12-09T00:44:32.321Z,83.19
2018-12-09T00:47:08.571Z,84.61
2018-12-09T00:49:44.789Z,83.23
2018-12-09T00:52:21.275Z,82.67
2018-12-09T00:54:57.465Z,82.15
2018-12-09T00:57:33.721Z,82.34
2018-12-09T01:00:13.098Z,81.24
2018-12-09T01:02:49.569Z,82.57
2018-12-09T01:05:25.915Z,83.97
2018-12-09T01:08:02.232Z,82.68
2018-12-09T01:10:38.478Z,82.61
2018-12-09T01:13:14.818Z,80.94
2018-12-09T01:15:51.038Z,82.51
2018-12-09T01:18:27.506Z,83.18
2018-12-09T01:21:03.869Z,82.80
2018-12-09T01:23:40.242Z,82.96
2018-12-09T01:26:16.636Z,82.82
2018-12-09T01:28:52.728Z,82.86
2018-12-09T01:31:29.008Z,82.58
2018-12-09T01:34:05.468Z,83.91
2018-12-09T01:36:41.746Z,83.12
2018-12-09T01:39:18.133Z,82.83
2018-12-09T01:41:54.459Z,81.82
2018-12-09T01:44:30.989Z,81.02
2018-12-09T01:47:07.250Z,83.56
2018-12-09T01:49:43.621Z,84.63
2018-12-09T01:52:19.971Z,82.18
2018-12-09T01:54:56.320Z,80.99
2018-12-09T01:57:32.601Z,84.15
2018-12-09T02:00:09.037Z,85.33
2018-12-09T02:02:45.378Z,83.76
2018-12-09T02:05:21.846Z,85.09
2018-12-09T02:07:58.400Z,85.19
2018-12-09T02:10:34.803Z,84.45
2018-12-09T02:13:11.119Z,83.72
2018-12-09T02:15:47.615Z,83.51
2018-12-09T02:18:23.706Z,82.69
2018-12-09T02:20:59.960Z,84.38
2018-12-09T02:23:36.271Z,84.30
2018-12-09T02:26:12.607Z,84.90
2018-12-09T02:28:48.927Z,83.85
2018-12-09T02:31:25.305Z,82.37
2018-12-09T02:34:02.485Z,83.79
2018-12-09T02:36:39.337Z,83.33
2018-12-09T02:39:15.573Z,82.49
2018-12-09T02:41:51.940Z,82.50
2018-12-09T02:44:28.257Z,83.58
2018-12-09T02:47:04.527Z,82.67
2018-12-09T02:49:40.750Z,83.08
2018-12-09T02:52:17.164Z,82.60
2018-12-09T02:54:53.468Z,82.72
2018-12-09T02:57:29.921Z,82.70
2018-12-09T03:00:07.046Z,82.50
2018-12-09T03:02:43.282Z,83.23
2018-12-09T03:05:19.674Z,83.65
2018-12-09T03:07:56.203Z,82.10
2018-12-09T03:10:32.558Z,81.03
2018-12-09T03:13:08.843Z,81.52
2018-12-09T03:15:45.054Z,82.32
2018-12-09T03:18:21.475Z,82.25
2018-12-09T03:20:57.838Z,83.25
2018-12-09T03:23:34.083Z,83.88
2018-12-09T03:26:10.435Z,82.63
2018-12-09T03:28:46.771Z,82.78
2018-12-09T03:31:23.038Z,83.01
2018-12-09T03:33:59.403Z,81.80
2018-12-09T03:36:35.743Z,80.52
2018-12-09T03:39:12.116Z,81.13
2018-12-09T03:41:48.400Z,83.81
2018-12-09T03:44:24.887Z,84.26
2018-12-09T03:47:01.128Z,84.15
2018-12-09T03:49:37.521Z,85.63
2018-12-09T03:52:13.860Z,86.94
2018-12-09T03:54:50.366Z,87.16
2018-12-09T03:57:26.814Z,86.02
2018-12-09T04:00:03.351Z,85.56
2018-12-09T04:02:39.738Z,84.15
2018-12-09T04:05:16.117Z,85.39
2018-12-09T04:07:52.386Z,85.55
2018-12-09T04:10:28.812Z,85.78
2018-12-09T04:13:05.277Z,84.59
2018-12-09T04:15:41.869Z,86.47
2018-12-09T04:18:18.344Z,84.03
2018-12-09T04:20:54.731Z,84.39
2018-12-09T04:23:31.183Z,84.64
2018-12-09T04:26:07.519Z,86.26
2018-12-09T04:28:43.687Z,86.37
2018-12-09T04:31:23.183Z,86.21
2018-12-09T04:33:59.516Z,85.14
2018-12-09T04:36:35.931Z,86.09
2018-12-09T04:39:12.263Z,86.80
2018-12-09T04:41:48.573Z,85.43
2018-12-09T04:44:24.819Z,86.01
2018-12-09T04:47:01.259Z,86.01
2018-12-09T04:49:37.488Z,87.52
2018-12-09T04:52:13.996Z,87.47
2018-12-09T04:54:50.494Z,87.97
2018-12-09T04:57:26.831Z,89.37
2018-12-09T05:00:13.829Z,88.73
2018-12-09T05:02:50.195Z,89.25
2018-12-09T05:05:26.398Z,88.30
2018-12-09T05:08:02.731Z,90.06
2018-12-09T05:10:38.989Z,91.05
2018-12-09T05:13:15.499Z,90.97
2018-12-09T05:15:51.887Z,91.44
2018-12-09T05:18:28.189Z,91.52
2018-12-09T05:21:04.432Z,91.79
2018-12-09T05:23:40.926Z,90.26
2018-12-09T05:26:17.266Z,89.77
2018-12-09T05:28:53.554Z,90.14
2018-12-09T05:31:29.718Z,90.78
2018-12-09T05:34:06.328Z,91.39
2018-12-09T05:36:42.689Z,92.13
2018-12-09T05:39:19.201Z,93.12
2018-12-09T05:41:55.369Z,92.60
2018-12-09T05:44:31.771Z,93.44
2018-12-09T05:47:08.127Z,95.65
2018-12-09T05:49:44.467Z,95.09
2018-12-09T05:52:20.691Z,95.96
2018-12-09T05:54:57.093Z,96.20
2018-12-09T05:57:33.461Z,96.85
2018-12-09T06:00:10.276Z,96.93
2018-12-09T06:02:53.831Z,95.55
2018-12-09T06:05:30.260Z,94.64
2018-12-09T06:08:06.539Z,92.63
2018-12-09T06:10:42.914Z,92.35
2018-12-09T06:13:19.446Z,93.05
2018-12-09T06:15:55.785Z,93.09
2018-12-09T06:18:32.172Z,92.36
2018-12-09T06:21:09.106Z,92.92
2018-12-09T06:23:45.485Z,91.80
2018-12-09T06:26:21.887Z,90.96
2018-12-09T06:28:58.251Z,90.45
2018-12-09T06:31:34.649Z,91.13
2018-12-09T06:34:10.866Z,91.56
2018-12-09T06:36:47.557Z,89.81
2018-12-09T06:39:23.763Z,89.25
2018-12-09T06:42:00.728Z,92.13
2018-12-09T06:44:36.498Z,94.79
2018-12-09T06:47:12.824Z,96.25
2018-12-09T06:49:49.186Z,95.64
2018-12-09T06:52:25.592Z,94.65
2018-12-09T06:55:02.216Z,95.54
2018-12-09T06:57:38.579Z,93.74
2018-12-09T07:00:14.927Z,93.61
2018-12-09T07:02:51.218Z,92.65
2018-12-09T07:05:27.660Z,93.06
2018-12-09T07:08:04.028Z,89.65
2018-12-09T07:10:42.101Z,88.79
2018-12-09T07:13:18.838Z,89.89
2018-12-09T07:15:55.400Z,89.54
2018-12-09T07:18:32.161Z,89.80
2018-12-09T07:21:08.833Z,88.95
2018-12-09T07:23:45.277Z,85.15
2018-12-09T07:26:21.663Z,85.17
2018-12-09T07:28:58.005Z,83.02
2018-12-09T07:31:34.332Z,83.23
2018-12-09T07:34:10.760Z,83.52
2018-12-09T07:36:46.819Z,85.36
2018-12-09T07:39:23.296Z,86.62
2018-12-09T07:41:59.727Z,88.41
2018-12-09T07:44:36.042Z,87.01
2018-12-09T07:47:12.305Z,87.55
2018-12-09T07:49:48.736Z,88.47
2018-12-09T07:52:25.082Z,87.67
2018-12-09T07:55:01.377Z,87.10
2018-12-09T07:57:37.582Z,84.82
2018-12-09T08:00:13.947Z,84.77
2018-12-09T08:02:51.130Z,85.27
2018-12-09T08:05:27.346Z,85.28
2018-12-09T08:08:03.543Z,83.65
2018-12-09T08:10:40.160Z,83.59
2018-12-09T08:13:16.454Z,83.56
2018-12-09T08:15:52.696Z,82.35
2018-12-09T08:18:29.153Z,81.80
2018-12-09T08:21:05.580Z,81.42
2018-12-09T08:23:41.795Z,82.70
2018-12-09T08:26:18.120Z,82.92
2018-12-09T08:28:54.341Z,84.36
2018-12-09T08:31:30.854Z,84.11
2018-12-09T08:34:06.981Z,85.15
2018-12-09T08:36:43.279Z,85.38
2018-12-09T08:39:19.475Z,87.18
2018-12-09T08:41:55.902Z,89.30
2018-12-09T08:44:32.097Z,89.06
2018-12-09T08:47:09.383Z,88.62
2018-12-09T08:49:53.123Z,88.57
2018-12-09T08:52:29.555Z,88.12
2018-12-09T08:55:06.138Z,85.65
2018-12-09T08:57:42.272Z,84.62
2018-12-09T09:00:18.523Z,83.99
2018-12-09T09:02:55.859Z,81.10
2018-12-09T09:05:32.089Z,81.50
2018-12-09T09:08:08.778Z,81.23
2018-12-09T09:10:49.315Z,80.38
2018-12-09T09:13:25.857Z,81.45
2018-12-09T09:16:02.220Z,83.05
2018-12-09T09:18:38.546Z,83.00
2018-12-09T09:21:14.852Z,83.92
2018-12-09T09:23:51.284Z,82.50
2018-12-09T09:26:27.511Z,82.16
2018-12-09T09:29:04.475Z,79.89
2018-12-09T09:31:40.576Z,79.47
2018-12-09T09:34:16.878Z,80.06
2018-12-09T09:36:53.539Z,80.10
2018-12-09T09:39:29.764Z,80.60
2018-12-09T09:42:06.470Z,81.48
2018-12-09T09:44:43.394Z,80.88
2018-12-09T09:47:19.599Z,81.97
2018-12-09T09:49:56.088Z,83.10
2018-12-09T09:52:35.108Z,83.68
2018-12-09T09:55:12.652Z,83.94
2018-12-09T09:57:48.878Z,81.85
2018-12-09T10:00:25.462Z,80.67
2018-12-09T10:03:02.316Z,80.89
2018-12-09T10:05:38.890Z,80.02
2018-12-09T10:08:15.035Z,79.54
2018-12-09T10:10:51.432Z,77.67
2018-12-09T10:13:27.668Z,77.28
2018-12-09T10:16:04.111Z,76.28
2018-12-09T10:18:40.475Z,76.53
2018-12-09T10:21:17.271Z,77.17
2018-12-09T10:23:53.485Z,76.08
2018-12-09T10:26:36.465Z,77.86
2018-12-09T10:29:06.258Z,76.45
2018-12-09T10:31:42.672Z,76.57
2018-12-09T10:34:18.911Z,78.14
2018-12-09T10:36:55.329Z,76.57
2018-12-09T10:39:31.762Z,78.55
2018-12-09T10:42:11.587Z,78.75
2018-12-09T10:44:47.898Z,77.66
2018-12-09T10:47:24.582Z,77.65
2018-12-09T10:50:00.764Z,78.93
2018-12-09T10:52:37.198Z,78.61
2018-12-09T10:55:13.663Z,78.84
2018-12-09T10:57:50.037Z,77.95
2018-12-09T11:00:31.144Z,77.26
2018-12-09T11:03:07.432Z,76.92
2018-12-09T11:05:43.755Z,76.30
2018-12-09T11:08:20.122Z,76.16
2018-12-09T11:10:56.529Z,76.28
2018-12-09T11:13:33.016Z,76.31
2018-12-09T11:16:09.226Z,76.55
2018-12-09T11:18:45.701Z,75.27
2018-12-09T11:21:21.981Z,74.06
2018-12-09T11:23:58.357Z,72.96
2018-12-09T11:26:34.752Z,72.91
2018-12-09T11:29:11.628Z,73.30
2018-12-09T11:31:47.943Z,72.40
2018-12-09T11:34:24.328Z,73.49
2018-12-09T11:37:00.526Z,72.95
2018-12-09T11:39:37.218Z,72.34
2018-12-09T11:42:16.352Z,72.08
2018-12-09T11:44:52.715Z,71.93
2018-12-09T11:47:29.222Z,71.18
2018-12-09T11:50:07.451Z,71.30
2018-12-09T11:52:43.673Z,71.54
2018-12-09T11:55:20.078Z,72.10
2018-12-09T11:57:56.292Z,71.59
2018-12-09T12:00:32.774Z,71.50
2018-12-09T12:03:09.017Z,71.78
2018-12-09T12:05:45.389Z,72.10
2018-12-09T12:08:21.718Z,72.34
2018-12-09T12:10:58.142Z,71.82
2018-12-09T12:13:34.534Z,71.67
2018-12-09T12:16:10.957Z,72.00
2018-12-09T12:18:47.922Z,71.28
2018-12-09T12:21:24.338Z,70.79
2018-12-09T12:24:00.548Z,70.56
2018-12-09T12:26:36.983Z,70.30
2018-12-09T12:29:13.227Z,70.42
2018-12-09T12:31:49.987Z,69.58
2018-12-09T12:34:26.343Z,69.37
2018-12-09T12:37:02.737Z,68.85
2018-12-09T12:39:39.171Z,67.10
2018-12-09T12:42:15.875Z,65.46
2018-12-09T12:44:52.167Z,62.89
2018-12-09T12:47:28.586Z,61.66
2018-12-09T12:50:05.338Z,59.29
2018-12-09T12:52:41.768Z,58.44
2018-12-09T12:55:18.025Z,56.05
2018-12-09T12:57:54.259Z,53.61
2018-12-09T13:00:30.508Z,53.41
2018-12-09T13:03:06.931Z,56.40
2018-12-09T13:05:43.284Z,52.74
2018-12-09T13:08:19.624Z,50.76
2018-12-09T13:10:55.771Z,50.32
2018-12-09T13:13:32.481Z,50.51
2018-12-09T13:16:08.809Z,50.10
2018-12-09T13:18:45.244Z,48.88
2018-12-09T13:21:21.560Z,47.76
2018-12-09T13:23:57.989Z,49.35
2018-12-09T13:26:34.296Z,51.22
2018-12-09T13:29:11.080Z,50.38
2018-12-09T13:31:47.369Z,51.44
2018-12-09T13:34:23.814Z,52.80
2018-12-09T13:37:00.042Z,55.96
2018-12-09T13:39:36.511Z,58.38
2018-12-09T13:42:12.901Z,61.31
2018-12-09T13:44:49.411Z,61.09
2018-12-09T13:47:25.773Z,62.44
2018-12-09T13:50:02.163Z,63.01
2018-12-09T13:52:38.472Z,64.23
2018-12-09T13:55:15.148Z,65.70
2018-12-09T13:57:51.583Z,66.52
2018-12-09T14:00:27.836Z,67.76
2018-12-09T14:03:04.268Z,69.18
2018-12-09T14:05:40.727Z,70.92
2018-12-09T14:08:16.952Z,71.59
2018-12-09T14:10:53.258Z,72.58
2018-12-09T14:13:29.507Z,73.69
2018-12-09T14:16:05.852Z,74.52
2018-12-09T14:18:42.027Z,77.21
2018-12-09T14:21:18.478Z,78.76
2018-12-09T14:23:54.666Z,80.47
2018-12-09T14:26:31.070Z,80.29
2018-12-09T14:29:07.534Z,80.96
2018-12-09T14:31:44.112Z,80.39
2018-12-09T14:34:20.408Z,79.20
2018-12-09T14:36:56.692Z,79.41
2018-12-09T14:39:34.336Z,78.73
2018-12-09T14:42:09.360Z,77.30
2018-12-09T14:44:45.653Z,74.10
2018-12-09T14:47:23.576Z,73.66
2018-12-09T14:50:00.376Z,74.71
2018-12-09T14:52:37.078Z,74.92
2018-12-09T14:55:13.696Z,77.09
2018-12-09T14:57:50.865Z,79.54
2018-12-09T15:00:28.628Z,79.45
2018-12-09T15:03:05.893Z,80.56
2018-12-09T15:05:42.704Z,81.70
2018-12-09T15:08:19.647Z,81.95
2018-12-09T15:10:56.343Z,81.23
2018-12-09T15:13:33.077Z,82.09
2018-12-09T15:16:09.926Z,81.64
2018-12-09T15:18:46.854Z,82.39
2018-12-09T15:21:23.646Z,81.86
2018-12-09T15:24:00.572Z,82.24
2018-12-09T15:26:42.951Z,82.40
2018-12-09T15:29:19.847Z,83.19
2018-12-09T15:31:56.483Z,83.75
2018-12-09T15:34:33.400Z,84.61
2018-12-09T15:37:10.028Z,85.21
2018-12-09T15:39:46.900Z,85.71
2018-12-09T15:42:23.652Z,86.67
2018-12-09T15:45:00.285Z,87.09
2018-12-09T15:47:37.134Z,88.13
2018-12-09T15:50:13.919Z,87.42
2018-12-09T15:52:50.624Z,87.36
2018-12-09T15:55:27.312Z,88.53
2018-12-09T15:58:04.810Z,88.52
2018-12-09T16:00:46.795Z,89.32
2018-12-09T16:03:23.905Z,89.39
2018-12-09T16:06:00.773Z,89.54
2018-12-09T16:08:37.626Z,89.10
2018-12-09T16:11:14.167Z,89.24
2018-12-09T16:13:50.835Z,90.01
2018-12-09T16:16:28.848Z,90.61
2018-12-09T16:19:05.452Z,88.47
2018-12-09T16:21:42.688Z,88.76
2018-12-09T16:24:19.401Z,90.58
2018-12-09T16:26:56.217Z,90.60
2018-12-09T16:29:33.087Z,90.33
2018-12-09T16:32:09.826Z,90.62
2018-12-09T16:34:46.442Z,90.26
2018-12-09T16:37:23.084Z,90.81
2018-12-09T16:40:02.716Z,90.51
2018-12-09T16:42:40.786Z,88.03
2018-12-09T16:45:17.759Z,89.17
2018-12-09T16:47:54.590Z,89.98
2018-12-09T16:50:32.838Z,90.26
2018-12-09T16:53:10.202Z,90.32
2018-12-09T16:55:49.423Z,89.62
2018-12-09T16:58:25.799Z,90.38
2018-12-09T17:01:03.816Z,90.19
2018-12-09T17:03:41.323Z,90.04
2018-12-09T17:06:17.965Z,91.16
2018-12-09T17:08:49.321Z,93.65
2018-12-09T17:11:20.935Z,92.03
2018-12-09T17:13:52.732Z,91.24
2018-12-09T17:16:24.748Z,91.92
2018-12-09T17:18:56.444Z,91.68
2018-12-09T17:21:28.332Z,92.47
2018-12-09T17:24:00.078Z,92.44
2018-12-09T17:26:32.325Z,93.89
2018-12-09T17:29:05.519Z,93.39
2018-12-09T17:31:35.991Z,93.21
2018-12-09T17:34:07.727Z,92.64
2018-12-09T17:36:39.411Z,93.00
2018-12-09T17:39:11.969Z,92.96
2018-12-09T17:41:44.724Z,93.73
2018-12-09T17:44:16.993Z,93.03
2018-12-09T17:46:48.972Z,92.89
2018-12-09T17:49:20.638Z,92.01
2018-12-09T17:51:52.897Z,92.46
2018-12-09T17:54:24.400Z,92.79
2018-12-09T17:56:56.134Z,94.64
2018-12-09T17:59:28.756Z,94.98
2018-12-09T18:02:00.516Z,96.91
2018-12-09T18:04:36.457Z,93.52
2018-12-09T18:07:07.971Z,93.36
2018-12-09T18:09:39.334Z,92.84
2018-12-09T18:12:10.600Z,97.99
2018-12-09T18:14:43.490Z,96.87
2018-12-09T18:17:14.775Z,95.32
2018-12-09T18:19:46.039Z,95.72
2018-12-09T18:22:17.404Z,95.36
2018-12-09T18:24:51.387Z,97.23
2018-12-09T18:27:27.063Z,97.85
2018-12-09T18:29:59.038Z,97.67
2018-12-09T18:32:30.720Z,96.74
2018-12-09T18:35:02.306Z,97.35
2018-12-09T18:37:34.899Z,98.07
2018-12-09T18:40:08.751Z,97.96
2018-12-09T18:42:40.852Z,97.81
2018-12-09T18:45:13.021Z,98.94
2018-12-09T18:47:46.126Z,98.55
2018-12-09T18:50:18.094Z,97.95
2018-12-09T18:52:50.089Z,97.82
2018-12-09T18:55:22.592Z,98.09
2018-12-09T18:57:54.456Z,98.20
2018-12-09T19:00:28.585Z,97.57
2018-12-09T19:03:00.547Z,97.83
2018-12-09T19:05:32.407Z,97.16
2018-12-09T19:08:05.356Z,97.25
2018-12-09T19:10:37.299Z,96.14
2018-12-09T19:13:09.118Z,96.22
2018-12-09T19:15:40.692Z,95.72
2018-12-09T19:18:11.915Z,95.15
2018-12-09T19:20:43.166Z,96.32
2018-12-09T19:23:14.381Z,95.12
2018-12-09T19:25:45.699Z,95.75
2018-12-09T19:28:17.110Z,94.14
2018-12-09T19:30:48.590Z,95.43
2018-12-09T19:33:19.640Z,96.37
2018-12-09T19:35:50.902Z,95.47
2018-12-09T19:38:22.043Z,94.38
2018-12-09T19:40:53.305Z,95.31
2018-12-09T19:43:24.463Z,96.01
2018-12-09T19:45:55.709Z,97.14
2018-12-09T19:48:26.906Z,98.05
2018-12-09T19:50:58.110Z,97.33
2018-12-09T19:53:29.501Z,98.56
2018-12-09T19:56:00.834Z,98.67
2018-12-09T19:58:31.994Z,99.29
2018-12-09T20:01:03.722Z,97.92
2018-12-09T20:03:34.947Z,96.23
2018-12-09T20:06:06.272Z,96.31
2018-12-09T20:08:37.525Z,97.53
2018-12-09T20:11:08.826Z,97.83
2018-12-09T20:13:40.018Z,98.77
2018-12-09T20:16:11.451Z,98.63
2018-12-09T20:18:42.584Z,98.46
2018-12-09T20:21:13.836Z,97.09
2018-12-09T20:23:45.084Z,96.72
2018-12-09T20:26:16.476Z,97.09
2018-12-09T20:28:47.718Z,96.43
2018-12-09T20:31:18.914Z,96.60
2018-12-09T20:33:50.144Z,95.97
2018-12-09T20:36:21.402Z,94.86
2018-12-09T20:38:52.577Z,95.12
2018-12-09T20:41:24.033Z,94.60
2018-12-09T20:43:55.203Z,95.70
2018-12-09T20:46:26.476Z,95.01
2018-12-09T20:48:57.633Z,95.38
2018-12-09T20:51:28.846Z,94.94
2018-12-09T20:53:59.966Z,94.70
2018-12-09T20:56:31.325Z,95.29
2018-12-09T20:59:07.508Z,95.54
2018-12-09T21:01:38.738Z,95.34
2018-12-09T21:04:09.884Z,94.48
2018-12-09T21:06:41.102Z,95.86
2018-12-09T21:09:12.275Z,95.75
2018-12-09T21:11:43.503Z,96.11
2018-12-09T21:14:14.646Z,96.29
2018-12-09T21:16:46.021Z,96.26
2018-12-09T21:19:17.430Z,95.47
2018-12-09T21:21:48.695Z,94.55
2018-12-09T21:24:25.835Z,94.71
2018-12-09T21:26:51.391Z,96.21
2018-12-09T21:29:22.641Z,99.18
2018-12-09T21:31:54.108Z,98.54
2018-12-09T21:34:25.996Z,97.32
2018-12-09T21:36:57.341Z,97.65
2018-12-09T21:40:01.629Z,96.35
2018-12-09T21:42:33.038Z,93.67
2018-12-09T21:45:04.317Z,93.93
2018-12-09T21:47:35.525Z,93.56
2018-12-09T21:50:07.312Z,94.47
2018-12-09T21:52:38.565Z,94.78
2018-12-09T21:55:09.686Z,96.49
2018-12-09T21:57:41.238Z,96.84
2018-12-09T22:00:12.458Z,98.34
2018-12-09T22:02:43.638Z,96.25
2018-12-09T22:05:15.783Z,96.94
2018-12-09T22:07:47.152Z,96.07
2018-12-09T22:10:18.287Z,95.49
2018-12-09T22:12:49.524Z,93.99
2018-12-09T22:15:21.556Z,95.66
2018-12-09T22:17:52.817Z,95.31
2018-12-09T22:20:24.023Z,95.21
2018-12-09T22:23:07.029Z,94.89
2018-12-09T22:25:38.147Z,96.14
2018-12-09T22:28:09.336Z,96.71
2018-12-09T22:30:40.604Z,95.96
2018-12-09T22:33:11.807Z,97.82
2018-12-09T22:35:42.949Z,97.77
2018-12-09T22:38:14.195Z,98.97
2018-12-09T22:40:45.328Z,99.55
2018-12-09T22:43:16.547Z,98.26
2018-12-09T22:45:47.710Z,98.10
2018-12-09T22:48:18.963Z,100.00
2018-12-09T22:50:50.078Z,100.00
2018-12-09T22:53:21.282Z,100.00
2018-12-09T22:55:52.432Z,100.00
2018-12-09T22:59:47.680Z,100.00
2018-12-09T23:02:24.072Z,100.00
2018-12-09T23:04:55.221Z,100.00
2018-12-09T23:07:31.282Z,98.61
2018-12-09T23:10:02.600Z,99.24
2018-12-09T23:12:33.740Z,99.71
2018-12-09T23:15:05.022Z,99.70
2018-12-09T23:17:36.184Z,100.00
2018-12-09T23:20:07.861Z,100.00
2018-12-09T23:22:39.050Z,100.00
2018-12-09T23:25:10.293Z,100.00
2018-12-09T23:27:41.492Z,100.00
2018-12-09T23:30:12.726Z,100.00
2018-12-09T23:32:46.423Z,100.00
2018-12-09T23:35:17.638Z,100.00
2018-12-09T23:37:48.792Z,100.00
2018-12-09T23:40:20.086Z,100.00
2018-12-09T23:42:51.518Z,100.00
2018-12-09T23:45:22.720Z,100.00
2018-12-09T23:47:53.892Z,100.00
2018-12-09T23:50:25.221Z,100.00
2018-12-09T23:52:56.393Z,100.00
2018-12-09T23:55:27.628Z,100.00
2018-12-09T23:57:58.785Z,99.73
